Time;durP1;ratioP1;P1;durP2;ratioP2;P2;SDS_P1;SDS_P2;PMS_P1;PMS_P2;Temp;Humidity;BMP_temperature;BMP_pressure;BME280_temperature;BME280_humidity;BME280_pressure;Samples;Min_cycle;Max_cycle;Signal;HPM_P1;HPM_P2
2022/12/01 00:00:37;;;;;;;9.63;3.70;;;4.80;99.90;;;;;;5090165;28;20483;-75
2022/12/01 00:03:03;;;;;;;8.68;5.07;;;6.00;99.90;;;;;;5071098;28;20131;-76
2022/12/01 00:05:29;;;;;;;8.18;4.43;;;4.90;99.90;;;;;;5089798;28;20028;-77
2022/12/01 00:07:56;;;;;;;11.98;5.20;;;5.40;99.90;;;;;;5090095;28;20024;-76
2022/12/01 00:10:24;;;;;;;14.80;5.47;;;6.10;99.90;;;;;;5071523;28;20024;-76
2022/12/01 00:12:58;;;;;;;6.75;3.83;;;6.10;99.90;;;;;;5090122;28;20046;-78
2022/12/01 00:15:35;;;;;;;8.70;5.45;;;5.60;99.90;;;;;;5071676;28;20460;-76
2022/12/01 00:18:04;;;;;;;11.88;4.57;;;4.90;99.90;;;;;;5089841;28;20365;-76
2022/12/01 00:20:32;;;;;;;11.90;5.47;;;4.90;99.90;;;;;;5089691;28;20107;-75
2022/12/01 00:22:58;;;;;;;12.15;4.15;;;5.10;99.90;;;;;;5089879;28;20016;-78
2022/12/01 00:25:24;;;;;;;9.43;5.03;;;4.90;99.90;;;;;;5071765;28;20034;-76
2022/12/01 00:27:51;;;;;;;9.68;3.88;;;4.90;99.90;;;;;;5089987;28;20048;-89
2022/12/01 00:30:18;;;;;;;7.65;4.25;;;4.90;99.90;;;;;;5090219;28;20065;-77
2022/12/01 00:32:44;;;;;;;7.97;3.40;;;4.90;99.90;;;;;;5089660;28;20032;-77
2022/12/01 00:35:10;;;;;;;7.97;3.30;;;6.20;99.90;;;;;;5089281;28;20047;-75
2022/12/01 00:37:36;;;;;;;8.43;3.75;;;4.80;99.90;;;;;;5089318;28;20468;-76
2022/12/01 00:40:04;;;;;;;5.80;3.80;;;6.30;99.90;;;;;;5071473;28;20036;-77
2022/12/01 00:42:29;;;;;;;8.02;4.07;;;4.80;99.90;;;;;;5071340;28;20419;-76
2022/12/01 00:44:55;;;;;;;12.75;4.85;;;5.40;99.90;;;;;;5089481;28;20098;-76
2022/12/01 00:47:21;;;;;;;11.75;4.72;;;6.30;99.90;;;;;;5071760;28;20036;-83
2022/12/01 00:49:46;;;;;;;10.55;5.43;;;4.90;99.90;;;;;;5089289;28;20025;-76
2022/12/01 00:52:14;;;;;;;7.93;4.35;;;5.40;99.90;;;;;;5089220;28;20408;-76
2022/12/01 00:54:39;;;;;;;6.22;3.67;;;5.80;99.90;;;;;;5089490;28;20404;-76
2022/12/01 00:57:06;;;;;;;9.55;4.63;;;;;;;;;;5089854;28;20027;-82
2022/12/01 00:59:31;;;;;;;7.18;4.18;;;4.90;99.90;;;;;;5071614;28;20056;-83
2022/12/01 01:01:57;;;;;;;8.95;5.50;;;4.90;99.90;;;;;;5071893;28;20020;-76
2022/12/01 01:04:23;;;;;;;11.73;4.32;;;4.90;99.90;;;;;;5066264;28;20033;-76
2022/12/01 01:06:48;;;;;;;7.32;3.00;;;4.90;99.90;;;;;;5051046;28;20047;-83
2022/12/01 01:09:15;;;;;;;8.15;4.00;;;5.90;99.90;;;;;;5051640;28;20031;-80
2022/12/01 01:11:40;;;;;;;12.23;5.63;;;6.40;99.90;;;;;;5051075;28;20025;-77
2022/12/01 01:14:07;;;;;;;7.30;4.43;;;5.70;99.90;;;;;;5069588;28;20020;-76
2022/12/01 01:16:33;;;;;;;10.25;4.50;;;4.80;99.90;;;;;;5072580;28;20075;-76
2022/12/01 01:18:59;;;;;;;11.52;5.07;;;6.10;99.90;;;;;;5054982;28;20051;-77
2022/12/01 01:21:26;;;;;;;5.82;3.08;;;5.20;99.90;;;;;;5054385;28;20366;-75
2022/12/01 01:23:53;;;;;;;8.65;4.25;;;4.80;99.90;;;;;;5054341;28;20100;-76
2022/12/01 01:26:23;;;;;;;10.15;4.38;;;6.00;99.90;;;;;;5072374;28;20070;-77
2022/12/01 01:28:49;;;;;;;10.45;3.75;;;5.40;99.90;;;;;;5054563;28;20025;-76
2022/12/01 01:31:23;;;;;;;9.32;3.35;;;5.70;99.90;;;;;;5078264;28;20027;-75
2022/12/01 01:33:50;;;;;;;7.72;4.43;;;4.80;99.90;;;;;;5092660;28;20024;-81
2022/12/01 01:36:17;;;;;;;10.38;4.28;;;4.80;99.90;;;;;;5074264;28;20101;-77
2022/12/01 01:38:43;;;;;;;7.38;5.00;;;5.20;99.90;;;;;;5092434;28;20036;-76
2022/12/01 01:41:09;;;;;;;8.43;4.95;;;4.80;99.90;;;;;;5074534;28;20032;-76
2022/12/01 01:44:04;;;;;;;7.30;4.00;;;5.80;99.90;;;;;;5074787;28;20039;-78
2022/12/01 01:46:32;;;;;;;9.23;5.05;;;6.00;99.90;;;;;;5072158;28;20040;-77
2022/12/01 01:49:08;;;;;;;7.30;4.15;;;4.70;99.90;;;;;;5070190;28;20024;-76
2022/12/01 01:51:41;;;;;;;8.23;4.43;;;4.80;99.90;;;;;;5071291;28;20110;-76
2022/12/01 01:54:30;;;;;;;7.00;4.00;;;5.30;99.90;;;;;;5085074;28;20036;-76
2022/12/01 01:56:58;;;;;;;8.45;3.83;;;5.20;99.90;;;;;;5072424;28;20049;-76
2022/12/01 01:59:30;;;;;;;10.90;4.23;;;6.00;99.90;;;;;;5090814;28;20036;-76
2022/12/01 02:02:04;;;;;;;8.93;4.55;;;4.80;99.90;;;;;;5091094;28;20015;-75
2022/12/01 02:04:33;;;;;;;7.38;4.55;;;6.10;99.90;;;;;;5072536;28;20035;-76
2022/12/01 02:06:59;;;;;;;8.43;5.13;;;5.10;99.90;;;;;;5071097;28;20021;-76
2022/12/01 02:09:24;;;;;;;8.40;4.60;;;4.80;99.90;;;;;;5071226;28;20035;-76
2022/12/01 02:12:11;;;;;;;10.80;5.30;;;5.80;99.90;;;;;;5071638;28;20162;-76
2022/12/01 02:14:50;;;;;;;9.70;3.60;;;4.80;99.90;;;;;;5053484;28;20569;-76
2022/12/01 02:17:34;;;;;;;8.82;5.05;;;4.70;99.90;;;;;;5053278;28;20020;-76
2022/12/01 02:20:21;;;;;;;14.02;6.18;;;4.70;99.90;;;;;;5085337;28;20036;-76
2022/12/01 02:23:21;;;;;;;15.35;6.10;;;4.70;99.90;;;;;;5071810;28;20020;-76
2022/12/01 02:26:07;;;;;;;8.00;4.50;;;4.70;99.90;;;;;;5070988;28;20103;-76
2022/12/01 02:28:41;;;;;;;14.68;4.43;;;4.80;99.90;;;;;;5071958;28;20511;-75
2022/12/01 02:31:30;;;;;;;9.05;4.55;;;4.70;99.90;;;;;;5072232;28;20536;-75
2022/12/01 02:34:20;;;;;;;8.63;4.10;;;4.80;99.90;;;;;;5071107;28;20032;-75
2022/12/01 02:36:54;;;;;;;9.88;4.95;;;4.70;99.90;;;;;;5071823;28;20492;-75
2022/12/01 02:39:28;;;;;;;12.27;5.35;;;4.70;99.90;;;;;;5091498;28;20174;-76
2022/12/01 02:42:04;;;;;;;9.18;4.25;;;4.60;99.90;;;;;;5073248;28;20032;-76
2022/12/01 02:44:36;;;;;;;9.73;4.57;;;4.60;99.90;;;;;;5071642;28;20024;-76
2022/12/01 02:47:13;;;;;;;8.85;4.25;;;4.50;99.90;;;;;;5089854;28;20016;-76
2022/12/01 02:49:58;;;;;;;19.33;4.85;;;4.50;99.90;;;;;;5071165;28;20492;-76
2022/12/01 02:52:25;;;;;;;11.45;5.45;;;4.50;99.90;;;;;;5089368;28;20052;-76
2022/12/01 02:54:52;;;;;;;9.20;5.50;;;4.50;99.90;;;;;;5089308;28;20024;-76
2022/12/01 02:57:19;;;;;;;7.82;4.65;;;4.60;99.90;;;;;;5089531;28;20016;-76
2022/12/01 02:59:49;;;;;;;13.45;7.38;;;4.80;99.90;;;;;;5090988;28;20082;-75
2022/12/01 03:02:43;;;;;;;11.85;6.85;;;4.60;99.90;;;;;;5072808;28;20028;-76
2022/12/01 03:05:27;;;;;;;14.40;5.38;;;4.60;99.90;;;;;;5091127;28;20154;-76
2022/12/01 03:08:12;;;;;;;9.70;3.75;;;4.50;99.90;;;;;;5072702;28;20020;-76
2022/12/01 03:10:44;;;;;;;11.90;5.90;;;4.60;99.90;;;;;;5072569;28;20023;-76
2022/12/01 03:13:31;;;;;;;7.18;4.05;;;4.50;99.90;;;;;;5072440;28;20039;-76
2022/12/01 03:16:06;;;;;;;9.77;5.13;;;4.50;99.90;;;;;;5072311;28;20034;-76
2022/12/01 03:18:42;;;;;;;8.55;4.75;;;4.50;99.90;;;;;;5071492;28;20082;-76
2022/12/01 03:21:49;;;;;;;18.08;6.15;;;4.50;99.90;;;;;;5090187;28;20070;-76
2022/12/01 03:24:18;;;;;;;8.38;4.53;;;4.60;99.90;;;;;;5038783;28;20402;-76
2022/12/01 03:26:51;;;;;;;7.75;5.57;;;4.60;99.90;;;;;;5072032;28;20039;-76
2022/12/01 03:29:24;;;;;;;9.48;5.18;;;4.60;99.90;;;;;;5071712;28;20393;-75
2022/12/01 03:31:54;;;;;;;15.60;5.15;;;4.60;99.90;;;;;;5089492;28;20464;-75
2022/12/01 03:34:28;;;;;;;14.07;4.18;;;4.60;99.90;;;;;;5070315;28;20047;-76
2022/12/01 03:37:02;;;;;;;11.90;5.57;;;4.60;99.90;;;;;;5070424;28;20110;-75
2022/12/01 03:39:33;;;;;;;11.20;7.93;;;4.70;99.90;;;;;;5088566;28;20431;-75
2022/12/01 03:42:16;;;;;;;7.63;5.35;;;4.60;99.90;;;;;;5089150;28;20070;-76
2022/12/01 03:44:50;;;;;;;9.75;4.50;;;4.60;99.90;;;;;;5088691;28;20161;-76
2022/12/01 03:47:20;;;;;;;11.90;5.45;;;4.60;99.90;;;;;;5071472;28;20028;-76
2022/12/01 03:49:49;;;;;;;10.35;4.63;;;5.80;99.90;;;;;;5090306;28;20053;-76
2022/12/01 03:52:37;;;;;;;15.55;5.25;;;4.60;99.90;;;;;;5089926;28;20044;-75
2022/12/01 03:55:03;;;;;;;12.20;5.82;;;;;;;;;;5090118;28;20531;-75
2022/12/01 03:57:57;;;;;;;13.20;5.13;;;4.60;99.90;;;;;;5090420;28;20016;-75
2022/12/01 04:00:23;;;;;;;14.23;5.47;;;4.60;99.90;;;;;;5089931;28;20036;-76
2022/12/01 04:02:57;;;;;;;14.02;6.32;;;4.40;99.90;;;;;;5089864;28;20091;-76
2022/12/01 04:05:24;;;;;;;12.98;5.10;;;4.40;99.90;;;;;;5071361;28;20024;-76
2022/12/01 04:07:50;;;;;;;12.50;6.00;;;4.40;99.90;;;;;;5071455;28;20016;-75
2022/12/01 04:10:16;;;;;;;15.65;4.80;;;4.50;99.90;;;;;;5089442;28;20093;-76
2022/12/01 04:12:41;;;;;;;12.00;5.63;;;4.60;99.90;;;;;;5089994;28;20086;-75
2022/12/01 04:15:11;;;;;;;13.02;6.50;;;4.40;99.90;;;;;;5071789;28;20194;-75
2022/12/01 04:17:37;;;;;;;9.45;5.60;;;4.40;99.90;;;;;;5071750;28;20183;-75
2022/12/01 04:20:05;;;;;;;11.93;5.40;;;4.30;99.90;;;;;;5089523;28;20477;-75
2022/12/01 04:22:32;;;;;;;12.45;4.85;;;4.40;99.90;;;;;;5071393;28;20036;-75
2022/12/01 04:24:57;;;;;;;10.38;5.03;;;4.40;99.90;;;;;;5071486;28;20026;-76
2022/12/01 04:27:23;;;;;;;13.38;5.60;;;4.70;99.90;;;;;;5071443;28;20016;-76
2022/12/01 04:29:49;;;;;;;8.68;4.95;;;4.40;99.90;;;;;;5071516;28;20369;-75
2022/12/01 04:32:15;;;;;;;15.65;5.75;;;4.40;99.90;;;;;;5071591;28;20024;-76
2022/12/01 04:34:41;;;;;;;13.70;4.82;;;5.40;99.90;;;;;;5089457;28;20031;-76
2022/12/01 04:37:08;;;;;;;16.55;7.00;;;5.90;99.90;;;;;;5089731;28;20028;-75
2022/12/01 04:39:35;;;;;;;10.68;5.38;;;5.40;99.90;;;;;;5089342;28;20046;-75
2022/12/01 04:42:01;;;;;;;14.70;5.90;;;4.10;99.90;;;;;;5071451;28;20028;-75
2022/12/01 04:44:27;;;;;;;16.98;7.93;;;4.00;99.90;;;;;;5089469;28;20106;-75
2022/12/01 04:46:52;;;;;;;16.05;8.00;;;4.30;99.90;;;;;;5071398;28;20189;-76
2022/12/01 04:49:19;;;;;;;19.00;7.35;;;4.30;99.90;;;;;;5072047;28;20028;-76
2022/12/01 04:51:45;;;;;;;16.92;8.10;;;4.00;99.90;;;;;;5097723;28;20131;-75
2022/12/01 04:54:11;;;;;;;18.85;7.72;;;4.40;99.90;;;;;;5095132;28;20524;-75
2022/12/01 04:56:37;;;;;;;15.45;6.70;;;4.10;99.90;;;;;;5094852;28;20230;-76
2022/12/01 04:59:03;;;;;;;17.77;7.75;;;3.80;99.90;;;;;;5074480;28;20036;-75
2022/12/01 05:01:28;;;;;;;24.52;9.48;;;4.20;99.90;;;;;;5092432;28;20024;-76
2022/12/01 05:03:55;;;;;;;15.32;8.77;;;3.90;99.90;;;;;;5091518;28;20043;-75
2022/12/01 05:06:23;;;;;;;26.58;8.82;;;3.80;99.90;;;;;;5073459;28;20016;-76
2022/12/01 05:08:50;;;;;;;14.60;6.32;;;4.80;99.90;;;;;;5091767;28;20024;-76
2022/12/01 05:11:16;;;;;;;21.90;8.48;;;5.00;99.90;;;;;;5091882;28;20094;-75
2022/12/01 05:13:44;;;;;;;23.95;9.13;;;3.80;99.90;;;;;;5073569;28;20024;-75
2022/12/01 05:16:24;;;;;;;16.17;8.25;;;3.90;99.90;;;;;;5091711;28;20024;-75
2022/12/01 05:21:41;;;;;;;18.40;9.80;;;3.70;99.90;;;;;;5091287;28;20519;-75
2022/12/01 05:24:08;;;;;;;22.83;9.25;;;3.70;99.90;;;;;;5091320;28;20411;-75
2022/12/01 05:26:34;;;;;;;18.70;8.65;;;3.70;99.90;;;;;;5074277;28;20675;-75
2022/12/01 05:29:00;;;;;;;22.42;8.52;;;3.70;99.90;;;;;;5073413;28;20073;-75
2022/12/01 05:31:26;;;;;;;23.33;8.52;;;4.60;99.90;;;;;;5074858;28;20020;-75
2022/12/01 05:33:51;;;;;;;18.40;8.50;;;3.70;99.90;;;;;;5091728;28;20028;-75
2022/12/01 05:36:17;;;;;;;21.48;9.63;;;3.60;99.90;;;;;;5092242;28;20028;-76
2022/12/01 05:38:42;;;;;;;18.70;8.77;;;3.70;99.90;;;;;;5074170;28;20035;-76
2022/12/01 05:41:09;;;;;;;25.48;9.38;;;3.70;99.90;;;;;;5074025;28;20136;-74
2022/12/01 05:43:34;;;;;;;18.15;7.88;;;4.10;99.90;;;;;;5092883;28;20039;-75
2022/12/01 05:46:00;;;;;;;23.08;8.43;;;3.80;99.90;;;;;;5092556;28;20024;-75
2022/12/01 05:48:25;;;;;;;17.60;8.23;;;4.40;99.90;;;;;;5092594;28;20469;-75
2022/12/01 05:50:51;;;;;;;29.17;11.30;;;3.60;99.90;;;;;;5092053;28;20108;-75
2022/12/01 05:53:17;;;;;;;25.77;10.60;;;3.90;99.90;;;;;;5092050;28;20403;-75
2022/12/01 05:55:43;;;;;;;21.00;10.18;;;4.00;99.90;;;;;;5074253;28;20477;-75
2022/12/01 05:58:09;;;;;;;22.23;9.90;;;3.90;99.90;;;;;;5092066;28;20056;-75
2022/12/01 06:00:35;;;;;;;19.85;11.07;;;4.10;99.90;;;;;;5073169;28;20028;-76
2022/12/01 06:03:01;;;;;;;22.35;10.07;;;3.60;99.90;;;;;;5092451;28;20070;-76
2022/12/01 06:05:27;;;;;;;23.83;9.80;;;4.30;99.90;;;;;;5073840;28;20024;-76
2022/12/01 06:07:53;;;;;;;20.17;8.32;;;3.70;99.90;;;;;;5092124;28;20025;-75
2022/12/01 06:10:18;;;;;;;24.77;11.07;;;3.70;99.90;;;;;;5092114;28;20028;-75
2022/12/01 06:12:44;;;;;;;14.75;8.60;;;4.10;99.90;;;;;;5073752;28;20588;-75
2022/12/01 06:15:11;;;;;;;25.70;11.40;;;3.50;99.90;;;;;;5073694;28;20028;-75
2022/12/01 06:17:37;;;;;;;16.80;8.52;;;4.30;99.90;;;;;;5071394;28;20020;-76
2022/12/01 06:20:03;;;;;;;21.95;7.80;;;3.50;99.90;;;;;;5071617;28;20040;-76
2022/12/01 06:22:29;;;;;;;24.77;8.82;;;3.50;99.90;;;;;;5071620;28;20048;-75
2022/12/01 06:24:55;;;;;;;19.27;9.20;;;4.90;99.90;;;;;;5053661;28;20469;-75
2022/12/01 06:27:20;;;;;;;16.55;8.35;;;5.10;99.90;;;;;;5071849;28;20062;-76
2022/12/01 06:29:47;;;;;;;35.05;14.32;;;5.10;99.90;;;;;;5071304;28;20113;-76
2022/12/01 06:32:13;;;;;;;22.90;10.57;;;3.40;99.90;;;;;;5071181;28;20484;-76
2022/12/01 06:34:39;;;;;;;20.02;9.45;;;3.50;99.90;;;;;;5053077;28;20052;-76
2022/12/01 06:37:05;;;;;;;19.75;11.13;;;4.30;99.90;;;;;;5053046;28;20042;-75
2022/12/01 06:39:30;;;;;;;26.77;9.10;;;5.20;99.90;;;;;;5071261;28;20028;-76
2022/12/01 06:41:56;;;;;;;36.53;13.07;;;3.40;99.90;;;;;;5053661;28;20017;-75
2022/12/01 06:44:22;;;;;;;23.83;9.35;;;3.80;99.90;;;;;;5053080;28;20060;-76
2022/12/01 06:46:51;;;;;;;24.05;8.73;;;3.70;99.90;;;;;;5053832;28;20031;-75
2022/12/01 06:49:17;;;;;;;;;;;3.30;99.90;;;;;;5053125;28;20033;-76
2022/12/01 06:51:43;;;;;;;16.45;6.75;;;3.40;99.90;;;;;;5071035;28;19927;-75
2022/12/01 06:54:10;;;;;;;22.70;7.88;;;3.30;99.90;;;;;;5052943;28;20055;-75
2022/12/01 06:56:36;;;;;;;20.80;8.23;;;3.40;99.90;;;;;;5053072;28;20025;-75
2022/12/01 06:59:01;;;;;;;19.52;8.23;;;3.30;99.90;;;;;;5052955;28;20136;-75
2022/12/01 07:01:27;;;;;;;17.33;7.15;;;3.20;99.90;;;;;;5070712;28;20095;-75
2022/12/01 07:03:53;;;;;;;13.00;7.10;;;3.60;99.90;;;;;;5053239;28;20487;-75
2022/12/01 07:06:19;;;;;;;25.15;9.27;;;3.30;99.90;;;;;;5070578;28;20066;-76
2022/12/01 07:08:45;;;;;;;28.55;7.95;;;3.20;99.90;;;;;;5070563;28;20069;-76
2022/12/01 07:11:13;;;;;;;25.08;7.97;;;3.10;99.90;;;;;;5053232;28;20029;-75
2022/12/01 07:13:40;;;;;;;17.67;7.65;;;3.10;99.90;;;;;;5053856;28;20032;-76
2022/12/01 07:16:06;;;;;;;24.20;10.75;;;3.20;99.90;;;;;;5071081;28;20023;-76
2022/12/01 07:18:33;;;;;;;17.67;7.55;;;3.00;99.90;;;;;;5070476;28;20024;-76
2022/12/01 07:21:04;;;;;;;15.18;6.32;;;3.30;99.90;;;;;;5051182;28;20040;-76
2022/12/01 07:23:30;;;;;;;16.50;6.68;;;3.00;99.90;;;;;;5069372;28;20028;-75
2022/12/01 07:26:08;;;;;;;15.68;7.80;;;2.90;99.90;;;;;;5069582;28;20028;-75
2022/12/01 07:28:34;;;;;;;18.08;6.90;;;2.90;99.90;;;;;;5068828;28;20052;-76
2022/12/01 07:31:14;;;;;;;14.32;6.95;;;3.00;99.90;;;;;;5068631;28;20059;-76
2022/12/01 07:33:40;;;;;;;14.32;7.22;;;2.90;99.90;;;;;;5069313;28;20107;-75
2022/12/01 07:36:07;;;;;;;21.35;7.93;;;3.00;99.90;;;;;;5069117;28;20112;-76
2022/12/01 07:38:33;;;;;;;17.80;7.97;;;3.00;99.90;;;;;;5068395;28;20455;-76
2022/12/01 07:41:07;;;;;;;15.25;6.78;;;2.90;99.90;;;;;;5050646;28;20560;-75
2022/12/01 07:43:33;;;;;;;12.68;5.60;;;3.00;99.90;;;;;;5069379;28;20028;-75
2022/12/01 07:46:07;;;;;;;14.15;7.40;;;3.10;99.90;;;;;;5051580;28;20324;-75
2022/12/01 07:48:33;;;;;;;12.55;6.50;;;2.80;99.90;;;;;;5066568;28;20059;-75
2022/12/01 07:50:59;;;;;;;15.05;6.72;;;2.90;99.90;;;;;;5065066;28;20062;-76
2022/12/01 07:53:24;;;;;;;21.30;5.93;;;3.10;99.90;;;;;;5089052;28;20495;-76
2022/12/01 07:55:50;;;;;;;12.93;6.25;;;2.80;99.90;;;;;;5056285;28;20040;-76
2022/12/01 07:58:16;;;;;;;12.35;4.53;;;2.90;99.90;;;;;;5049441;28;20029;-76
2022/12/01 08:00:42;;;;;;;14.82;7.75;;;2.80;99.90;;;;;;5068722;28;20036;-76
2022/12/01 08:03:07;;;;;;;16.83;7.30;;;3.40;99.90;;;;;;5067462;28;20086;-76
2022/12/01 08:05:33;;;;;;;13.90;6.82;;;2.80;99.90;;;;;;5067542;28;20433;-75
2022/12/01 08:07:59;;;;;;;12.35;6.78;;;2.70;99.90;;;;;;5081588;28;20024;-75
2022/12/01 08:10:24;;;;;;;15.10;7.80;;;2.70;99.90;;;;;;5088960;28;20028;-76
2022/12/01 08:12:50;;;;;;;11.63;5.30;;;3.30;99.90;;;;;;5088846;28;20021;-76
2022/12/01 08:15:16;;;;;;;16.73;7.43;;;4.40;99.90;;;;;;5088128;28;20024;-75
2022/12/01 08:17:41;;;;;;;11.02;6.88;;;3.90;99.90;;;;;;5068900;28;20028;-76
2022/12/01 08:20:07;;;;;;;13.88;5.75;;;3.10;99.90;;;;;;5087143;28;20086;-76
2022/12/01 08:22:33;;;;;;;17.05;5.82;;;2.80;99.90;;;;;;5087404;28;20397;-76
2022/12/01 08:24:59;;;;;;;11.52;6.72;;;2.70;99.90;;;;;;5068984;28;20032;-76
2022/12/01 08:27:24;;;;;;;15.55;8.30;;;3.00;99.90;;;;;;5087776;28;20411;-75
2022/12/01 08:29:50;;;;;;;16.30;6.63;;;3.00;99.90;;;;;;5088300;28;20020;-75
2022/12/01 08:32:16;;;;;;;14.02;6.38;;;3.20;99.90;;;;;;5087578;28;20036;-75
2022/12/01 08:34:42;;;;;;;18.08;7.07;;;3.00;99.90;;;;;;5069704;28;20070;-75
2022/12/01 08:37:08;;;;;;;12.68;6.18;;;2.70;99.90;;;;;;5087975;28;20028;-75
2022/12/01 08:39:34;;;;;;;12.40;6.40;;;2.70;99.90;;;;;;5069917;28;20040;-76
2022/12/01 08:42:00;;;;;;;17.17;6.53;;;2.70;99.90;;;;;;5070895;28;20036;-76
2022/12/01 08:44:26;;;;;;;16.17;6.13;;;2.70;99.90;;;;;;5079853;28;20401;-76
2022/12/01 08:46:53;;;;;;;14.43;5.55;;;3.10;99.90;;;;;;5050102;28;20039;-76
2022/12/01 08:49:18;;;;;;;12.55;6.47;;;2.70;99.90;;;;;;5071164;28;20035;-75
2022/12/01 08:51:44;;;;;;;19.50;7.68;;;3.00;99.90;;;;;;5071750;28;20527;-75
2022/12/01 08:54:11;;;;;;;15.10;8.23;;;2.80;99.90;;;;;;5051347;28;20025;-76
2022/12/01 08:56:40;;;;;;;16.13;7.63;;;2.90;99.90;;;;;;5051653;28;20032;-76
2022/12/01 08:59:08;;;;;;;18.35;7.53;;;2.70;99.90;;;;;;5066894;28;20037;-76
2022/12/01 09:01:50;;;;;;;13.18;6.07;;;2.70;99.90;;;;;;5048096;28;20111;-77
2022/12/01 09:04:16;;;;;;;13.57;7.40;;;2.70;99.90;;;;;;5047465;28;20309;-76
2022/12/01 09:06:47;;;;;;;16.33;8.00;;;2.60;99.90;;;;;;5047265;28;20366;-76
2022/12/01 09:09:18;;;;;;;18.38;7.75;;;2.70;99.90;;;;;;5046801;28;20119;-77
2022/12/01 09:11:45;;;;;;;20.33;6.55;;;2.80;99.90;;;;;;5047501;28;20413;-76
2022/12/01 09:14:13;;;;;;;18.67;6.57;;;2.80;99.90;;;;;;5066538;28;20033;-76
2022/12/01 09:16:39;;;;;;;22.55;8.52;;;2.80;99.90;;;;;;5048477;28;20034;-77
2022/12/01 09:19:05;;;;;;;14.73;6.88;;;2.80;99.90;;;;;;5046956;28;20028;-76
2022/12/01 09:21:33;;;;;;;27.65;10.73;;;3.90;99.90;;;;;;5047378;28;20031;-77
2022/12/01 09:24:00;;;;;;;18.70;7.55;;;2.80;99.90;;;;;;5066354;28;20032;-77
2022/12/01 09:26:26;;;;;;;26.83;10.13;;;3.10;99.90;;;;;;5048739;28;20032;-77
2022/12/01 09:28:54;;;;;;;27.92;10.77;;;2.80;99.90;;;;;;5066440;28;20028;-76
2022/12/01 09:31:22;;;;;;;17.58;8.57;;;3.60;99.90;;;;;;5067471;28;20090;-77
2022/12/01 09:33:52;;;;;;;19.25;8.35;;;2.80;99.90;;;;;;5066547;28;20059;-77
2022/12/01 09:36:18;;;;;;;16.83;7.50;;;2.90;99.90;;;;;;5072617;28;20070;-75
2022/12/01 09:38:44;;;;;;;20.17;10.02;;;2.80;99.90;;;;;;5072801;28;20039;-78
2022/12/01 09:41:37;;;;;;;20.10;6.57;;;2.80;99.90;;;;;;5053890;28;20024;-76
2022/12/01 09:44:12;;;;;;;11.25;6.63;;;2.90;99.90;;;;;;5077092;28;20032;-76
2022/12/01 09:46:45;;;;;;;16.33;8.23;;;2.80;99.90;;;;;;5073049;28;20039;-76
2022/12/01 09:49:17;;;;;;;21.00;8.98;;;2.90;99.90;;;;;;5090508;28;20073;-75
2022/12/01 09:51:43;;;;;;;17.85;7.75;;;2.90;99.90;;;;;;5090422;28;20040;-76
2022/12/01 09:54:12;;;;;;;15.73;7.10;;;4.80;99.90;;;;;;5090059;28;20059;-75
2022/12/01 09:56:44;;;;;;;19.17;8.80;;;3.00;99.90;;;;;;5090374;28;20050;-77
2022/12/01 09:59:26;;;;;;;17.05;8.63;;;2.90;99.90;;;;;;5071520;28;20044;-79
2022/12/01 10:02:02;;;;;;;18.88;7.72;;;2.90;99.90;;;;;;5073606;28;20032;-78
2022/12/01 10:04:35;;;;;;;17.50;8.05;;;3.00;99.90;;;;;;5073222;28;20024;-76
2022/12/01 10:07:12;;;;;;;21.67;8.65;;;2.90;99.90;;;;;;5090985;28;20024;-76
2022/12/01 10:09:58;;;;;;;20.42;7.53;;;2.90;99.90;;;;;;5072149;28;20027;-75
2022/12/01 10:12:28;;;;;;;23.88;9.48;;;2.80;99.90;;;;;;5089619;28;20028;-76
2022/12/01 10:15:12;;;;;;;16.98;7.38;;;2.90;99.90;;;;;;5071386;28;20035;-76
2022/12/01 10:18:02;;;;;;;23.90;9.10;;;2.90;99.90;;;;;;5071367;28;20059;-75
2022/12/01 10:20:53;;;;;;;14.85;8.70;;;3.10;99.90;;;;;;5088721;28;20399;-76
2022/12/01 10:23:30;;;;;;;21.88;9.35;;;3.10;99.90;;;;;;5089359;28;20474;-75
2022/12/01 10:26:25;;;;;;;22.88;9.55;;;3.10;99.90;;;;;;5089791;28;20031;-76
2022/12/01 10:29:25;;;;;;;22.83;9.65;;;3.10;99.90;;;;;;5068301;28;20044;-76
2022/12/01 10:31:57;;;;;;;27.00;9.95;;;3.00;99.90;;;;;;5089712;28;20028;-75
2022/12/01 10:34:33;;;;;;;19.08;9.32;;;3.10;99.90;;;;;;5081374;28;20066;-76
2022/12/01 10:36:59;;;;;;;19.05;8.45;;;3.10;99.90;;;;;;5071476;28;20485;-76
2022/12/01 10:39:29;;;;;;;18.52;8.98;;;3.10;99.90;;;;;;5088575;28;20122;-76
2022/12/01 10:42:13;;;;;;;22.23;8.32;;;3.20;99.90;;;;;;5071295;28;20468;-76
2022/12/01 10:44:40;;;;;;;24.40;8.30;;;;;;;;;;5074181;28;20154;-76
2022/12/01 10:47:19;;;;;;;18.73;8.80;;;3.30;99.90;;;;;;5068940;28;20067;-76
2022/12/01 10:49:45;;;;;;;24.77;8.52;;;3.20;99.90;;;;;;5051374;28;20192;-76
2022/12/01 10:52:36;;;;;;;13.18;9.95;;;3.20;99.90;;;;;;5068777;28;20203;-76
2022/12/01 10:55:25;;;;;;;22.15;8.73;;;3.30;99.90;;;;;;5051723;28;20021;-76
2022/12/01 10:57:53;;;;;;;20.08;7.53;;;3.20;99.90;;;;;;5068866;28;20489;-76
2022/12/01 11:00:25;;;;;;;21.02;9.27;;;3.30;99.90;;;;;;5050714;28;20056;-76
2022/12/01 11:02:51;;;;;;;15.85;8.68;;;3.10;99.90;;;;;;5068258;28;20056;-76
2022/12/01 11:05:27;;;;;;;18.55;6.50;;;3.20;99.90;;;;;;5049479;28;20024;-75
2022/12/01 11:07:54;;;;;;;19.50;6.80;;;3.20;99.90;;;;;;5049991;28;20029;-76
2022/12/01 11:10:26;;;;;;;23.13;10.13;;;3.30;99.90;;;;;;5049871;28;20024;-76
2022/12/01 11:13:05;;;;;;;20.15;7.53;;;3.40;99.90;;;;;;5068571;28;20032;-78
2022/12/01 11:15:37;;;;;;;17.65;7.75;;;3.40;99.90;;;;;;5050673;28;20024;-76
2022/12/01 11:18:37;;;;;;;14.43;7.47;;;3.50;99.90;;;;;;5047677;28;20083;-76
2022/12/01 11:21:15;;;;;;;16.30;7.80;;;3.60;99.90;;;;;;5068212;28;20036;-76
2022/12/01 11:23:48;;;;;;;20.17;7.80;;;3.60;99.90;;;;;;5067965;28;20099;-76
2022/12/01 11:26:25;;;;;;;17.33;8.15;;;5.30;99.90;;;;;;5068146;28;20334;-76
2022/12/01 11:29:11;;;;;;;16.65;7.97;;;4.90;99.90;;;;;;5067546;28;20046;-76
2022/12/01 11:31:41;;;;;;;22.52;8.10;;;3.60;99.90;;;;;;5049427;28;20052;-75
2022/12/01 11:34:28;;;;;;;20.95;9.65;;;3.60;99.90;;;;;;5049437;28;20030;-77
2022/12/01 11:37:01;;;;;;;18.30;8.20;;;3.70;99.90;;;;;;5049439;28;20032;-76
2022/12/01 11:39:31;;;;;;;18.58;8.80;;;3.70;99.90;;;;;;5049581;28;20485;-76
2022/12/01 11:42:00;;;;;;;18.85;8.38;;;3.60;99.90;;;;;;5068105;28;20074;-77
2022/12/01 11:44:27;;;;;;;20.80;8.10;;;3.60;99.90;;;;;;5080415;28;20220;-76
2022/12/01 11:46:53;;;;;;;22.77;8.65;;;3.50;99.90;;;;;;5070158;28;20455;-77
2022/12/01 11:49:23;;;;;;;18.35;9.30;;;3.50;99.90;;;;;;5069732;28;20028;-78
2022/12/01 11:51:48;;;;;;;23.02;8.77;;;3.50;99.90;;;;;;5069024;28;20454;-76
2022/12/01 11:54:16;;;;;;;14.60;7.53;;;4.20;99.90;;;;;;5069858;28;20040;-76
2022/12/01 11:56:43;;;;;;;19.67;8.07;;;3.50;99.90;;;;;;5088333;28;20092;-76
2022/12/01 11:59:16;;;;;;;30.13;10.13;;;3.50;99.90;;;;;;5087499;28;20384;-77
2022/12/01 12:01:59;;;;;;;17.45;8.82;;;3.50;99.90;;;;;;5069598;28;20032;-75
2022/12/01 12:04:34;;;;;;;22.02;7.93;;;3.60;99.90;;;;;;5069890;28;20058;-78
2022/12/01 12:07:24;;;;;;;17.33;8.55;;;3.60;99.90;;;;;;5069246;28;20036;-76
2022/12/01 12:09:56;;;;;;;21.02;8.77;;;3.60;99.90;;;;;;5069678;28;20028;-76
2022/12/01 12:12:22;;;;;;;20.02;9.40;;;3.70;99.90;;;;;;5071214;28;20024;-76
2022/12/01 12:15:05;;;;;;;21.52;9.35;;;3.60;99.90;;;;;;5067741;28;20365;-75
2022/12/01 12:17:51;;;;;;;18.30;7.70;;;3.60;99.90;;;;;;5067757;28;20020;-76
2022/12/01 12:20:46;;;;;;;17.65;7.50;;;3.70;99.90;;;;;;5049175;28;20074;-76
2022/12/01 12:23:20;;;;;;;21.80;8.35;;;3.80;99.90;;;;;;5069516;28;20500;-77
2022/12/01 12:26:01;;;;;;;16.45;7.18;;;3.70;99.90;;;;;;5065464;28;20444;-78
2022/12/01 12:28:48;;;;;;;22.08;6.60;;;3.70;99.90;;;;;;5066191;28;20021;-76
2022/12/01 12:31:33;;;;;;;21.13;9.27;;;3.70;99.90;;;;;;5047857;28;20115;-75
2022/12/01 12:34:21;;;;;;;22.40;7.75;;;5.80;99.90;;;;;;5047649;28;20028;-75
2022/12/01 12:37:20;;;;;;;17.48;7.85;;;3.70;99.90;;;;;;5048535;28;20085;-75
2022/12/01 12:40:10;;;;;;;23.25;8.68;;;3.60;99.90;;;;;;5067758;28;20052;-76
2022/12/01 12:42:41;;;;;;;19.00;8.07;;;3.60;99.90;;;;;;5066647;28;20501;-76
2022/12/01 12:45:36;;;;;;;16.90;7.20;;;3.60;99.90;;;;;;5086005;28;20078;-76
2022/12/01 12:48:11;;;;;;;20.80;8.98;;;3.60;99.90;;;;;;5030488;28;20043;-75
2022/12/01 12:50:49;;;;;;;24.45;10.32;;;3.60;99.90;;;;;;5068648;28;20510;-77
2022/12/01 12:53:22;;;;;;;17.48;8.95;;;3.70;99.90;;;;;;5068821;28;20059;-76
2022/12/01 12:55:51;;;;;;;21.33;9.23;;;3.70;99.90;;;;;;5068487;28;20369;-76
2022/12/01 12:58:33;;;;;;;25.38;10.07;;;3.70;99.90;;;;;;5068802;28;20020;-76
2022/12/01 13:01:06;;;;;;;24.75;10.60;;;3.70;99.90;;;;;;5068816;28;20310;-76
2022/12/01 13:03:51;;;;;;;29.00;11.13;;;3.70;99.90;;;;;;5068491;28;20472;-75
2022/12/01 13:06:22;;;;;;;27.35;10.60;;;3.60;99.90;;;;;;5068817;28;20028;-78
2022/12/01 13:08:56;;;;;;;22.92;10.98;;;3.60;99.90;;;;;;5068851;28;20042;-75
2022/12/01 13:11:40;;;;;;;20.58;9.82;;;3.50;99.90;;;;;;5089146;28;20024;-76